Time;durP1;ratioP1;P1;durP2;ratioP2;P2;SDS_P1;SDS_P2;PMS_P1;PMS_P2;Temp;Humidity;BMP_temperature;BMP_pressure;BME280_temperature;BME280_humidity;BME280_pressure;Samples;Min_cycle;Max_cycle;Signal;HPM_P1;HPM_P2
2022/03/02 00:01:59;;;;;;;;;;;0.60;99.90;;;;;;5097231;28;20270;-41
2022/03/02 00:04:25;;;;;;;;;;;0.50;99.90;;;;;;5097423;28;19912;-41
2022/03/02 00:06:51;;;;;;;;;;;0.50;99.90;;;;;;5096127;28;19912;-41
2022/03/02 00:09:16;;;;;;;;;;;0.50;99.90;;;;;;5097136;28;19908;-41
2022/03/02 00:11:42;;;;;;;;;;;0.50;99.90;;;;;;5097303;28;19908;-41
2022/03/02 00:14:07;;;;;;;;;;;0.50;99.90;;;;;;5097005;28;20005;-41
2022/03/02 00:16:33;;;;;;;;;;;0.40;99.90;;;;;;5097370;28;19965;-41
2022/03/02 00:18:59;;;;;;;;;;;0.50;99.90;;;;;;5096976;28;19912;-40
2022/03/02 00:21:25;;;;;;;;;;;0.40;99.90;;;;;;5095908;28;20419;-40
2022/03/02 00:23:51;;;;;;;;;;;0.30;99.90;;;;;;5097208;28;19912;-39
2022/03/02 00:26:17;;;;;;;;;;;0.30;99.90;;;;;;5096824;28;19908;-40
2022/03/02 00:28:42;;;;;;;;;;;0.30;99.90;;;;;;5096721;28;19924;-40
2022/03/02 00:31:08;;;;;;;;;;;0.20;99.90;;;;;;5096933;28;19908;-40
2022/03/02 00:33:34;;;;;;;;;;;0.20;99.90;;;;;;5096639;28;19994;-40
2022/03/02 00:36:00;;;;;;;;;;;0.10;99.90;;;;;;5096578;28;19912;-41
2022/03/02 00:38:25;;;;;;;;;;;0.20;99.90;;;;;;5096907;28;20401;-41
2022/03/02 00:40:51;;;;;;;;;;;0.20;99.90;;;;;;5096850;28;20359;-41
2022/03/02 00:43:17;;;;;;;;;;;0.20;99.90;;;;;;5096486;28;19935;-41
2022/03/02 00:45:43;;;;;;;;;;;0.10;99.90;;;;;;5096699;28;19909;-41
2022/03/02 00:48:09;;;;;;;;;;;0.00;99.90;;;;;;5096333;28;19908;-40
2022/03/02 00:50:35;;;;;;;;;;;0.10;99.90;;;;;;5095275;28;19908;-40
2022/03/02 00:53:02;;;;;;;;;;;0.10;99.90;;;;;;5096599;28;19908;-40
2022/03/02 00:55:28;;;;;;;;;;;0.00;99.90;;;;;;5096575;28;19974;-41
2022/03/02 00:57:53;;;;;;;;;;;0.00;99.90;;;;;;5096462;28;20372;-40
2022/03/02 01:00:19;;;;;;;;;;;0.00;99.90;;;;;;5096489;28;19918;-41
2022/03/02 01:02:46;;;;;;;;;;;-0.20;99.90;;;;;;5096434;28;20019;-40
2022/03/02 01:05:11;;;;;;;;;;;-0.10;99.90;;;;;;5096124;28;19916;-41
2022/03/02 01:07:37;;;;;;;;;;;-0.20;99.90;;;;;;5096288;28;19908;-41
2022/03/02 01:10:04;;;;;;;;;;;-0.20;99.90;;;;;;5096271;28;20451;-40
2022/03/02 01:12:30;;;;;;;;;;;-0.20;99.90;;;;;;5095963;28;19915;-40
2022/03/02 01:14:55;;;;;;;;;;;-0.10;99.90;;;;;;5096525;28;19908;-41
2022/03/02 01:17:21;;;;;;;;;;;-0.20;99.90;;;;;;5095715;28;19912;-41
2022/03/02 01:19:47;;;;;;;;;;;-0.30;99.90;;;;;;5095861;28;19912;-41
2022/03/02 01:22:12;;;;;;;;;;;-0.40;99.90;;;;;;5095666;28;19912;-41
2022/03/02 01:24:38;;;;;;;;;;;-0.60;99.90;;;;;;5095997;28;19961;-40
2022/03/02 01:27:04;;;;;;;;;;;-0.60;99.90;;;;;;5095936;28;19908;-40
2022/03/02 01:29:30;;;;;;;;;;;-0.50;99.90;;;;;;5094703;28;20003;-40
2022/03/02 01:31:59;;;;;;;;;;;-0.40;99.90;;;;;;5095905;28;19954;-40
2022/03/02 01:34:24;;;;;;;;;;;-0.50;99.90;;;;;;5095825;28;19915;-40
2022/03/02 01:36:50;;;;;;;;;;;-0.60;99.90;;;;;;5095714;28;19916;-40
2022/03/02 01:39:16;;;;;;;;;;;-0.70;99.90;;;;;;5095733;28;19923;-41
2022/03/02 01:41:42;;;;;;;;;;;-0.70;99.90;;;;;;5095250;28;19915;-40
2022/03/02 01:44:07;;;;;;;;;;;-0.70;99.90;;;;;;5095351;28;20299;-41
2022/03/02 01:46:33;;;;;;;;;;;-0.70;99.90;;;;;;5095195;28;19995;-40
2022/03/02 01:48:58;;;;;;;;;;;-0.60;99.90;;;;;;5095229;28;19915;-41
2022/03/02 01:51:24;;;;;;;;;;;-0.60;99.90;;;;;;5095249;28;19919;-41
2022/03/02 01:53:50;;;;;;;;;;;-0.60;99.90;;;;;;5095471;28;20002;-41
2022/03/02 01:56:16;;;;;;;;;;;-0.60;99.90;;;;;;5094114;28;20358;-41
2022/03/02 01:58:42;;;;;;;;;;;-0.50;99.90;;;;;;5095084;28;20359;-41
2022/03/02 02:01:08;;;;;;;;;;;-0.50;99.90;;;;;;5095603;28;19916;-40
2022/03/02 02:03:34;;;;;;;;;;;-0.50;99.90;;;;;;5093982;28;19908;-40
2022/03/02 02:06:00;;;;;;;;;;;-0.50;99.90;;;;;;5095210;28;19909;-41
2022/03/02 02:08:26;;;;;;;;;;;-0.50;99.90;;;;;;5095125;28;19912;-41
2022/03/02 02:10:52;;;;;;;;;;;-0.50;99.90;;;;;;5095380;28;20267;-41
2022/03/02 02:13:18;;;;;;;;;;;-0.50;99.90;;;;;;5094687;28;19908;-40
2022/03/02 02:15:44;;;;;;;;;;;-0.50;99.90;;;;;;5094879;28;20335;-41
2022/03/02 02:18:10;;;;;;;;;;;-0.60;99.90;;;;;;5094857;28;19916;-40
2022/03/02 02:20:39;;;;;;;;;;;-0.60;99.90;;;;;;5094916;28;19912;-41
2022/03/02 02:23:05;;;;;;;;;;;-0.60;99.90;;;;;;5094617;28;19908;-40
2022/03/02 02:25:31;;;;;;;;;;;-0.60;99.90;;;;;;5094882;28;20323;-40
2022/03/02 02:27:57;;;;;;;;;;;-0.60;99.90;;;;;;5094450;28;19927;-41
2022/03/02 02:30:23;;;;;;;;;;;-0.60;99.90;;;;;;5094846;28;19917;-41
2022/03/02 02:32:48;;;;;;;;;;;-0.60;99.90;;;;;;5094748;28;19908;-40
2022/03/02 02:35:14;;;;;;;;;;;-0.80;99.90;;;;;;5094657;28;19961;-41
2022/03/02 02:37:39;;;;;;;;;;;-0.70;99.90;;;;;;5094632;28;19912;-41
2022/03/02 02:40:09;;;;;;;;;;;-0.60;99.90;;;;;;5094243;28;19916;-41
2022/03/02 02:42:35;;;;;;;;;;;-0.60;99.90;;;;;;5094541;28;19955;-41
2022/03/02 02:45:01;;;;;;;;;;;-0.60;99.90;;;;;;5094602;28;19946;-41
2022/03/02 02:47:27;;;;;;;;;;;-0.70;99.90;;;;;;5094352;28;19909;-41
2022/03/02 02:49:52;;;;;;;;;;;-0.70;99.90;;;;;;5094412;28;20279;-40
2022/03/02 02:52:18;;;;;;;;;;;-0.70;99.90;;;;;;5094125;28;19915;-41
2022/03/02 02:54:44;;;;;;;;;;;-0.80;99.90;;;;;;5094133;28;19908;-40
2022/03/02 02:57:09;;;;;;;;;;;-0.70;99.90;;;;;;5093969;28;19919;-40
2022/03/02 02:59:35;;;;;;;;;;;-0.70;99.90;;;;;;5094362;28;19966;-40
2022/03/02 03:02:01;;;;;;;;;;;-0.60;99.90;;;;;;5093978;28;20010;-40
2022/03/02 03:04:26;;;;;;;;;;;-0.70;99.90;;;;;;5094305;28;20020;-40
2022/03/02 03:06:52;;;;;;;;;;;-0.70;99.90;;;;;;5092976;28;19912;-40
2022/03/02 03:09:17;;;;;;;;;;;-0.70;99.90;;;;;;5093908;28;19967;-41
2022/03/02 03:11:43;;;;;;;;;;;-0.80;99.90;;;;;;5093807;28;19908;-40
2022/03/02 03:14:09;;;;;;;;;;;-0.90;99.90;;;;;;5093946;28;19914;-40
2022/03/02 03:16:34;;;;;;;;;;;-0.80;99.90;;;;;;5094073;28;19912;-40
2022/03/02 03:19:00;;;;;;;;;;;-0.90;99.90;;;;;;5093873;28;19947;-40
2022/03/02 03:21:25;;;;;;;;;;;-0.80;99.90;;;;;;5094079;28;19908;-40
2022/03/02 03:23:51;;;;;;;;;;;-0.90;99.90;;;;;;5094511;28;20278;-40
2022/03/02 03:26:16;;;;;;;;;;;-0.90;99.90;;;;;;5093854;28;19908;-40
2022/03/02 03:28:42;;;;;;;;;;;-0.90;99.90;;;;;;5093708;28;19921;-40
2022/03/02 03:31:08;;;;;;;;;;;-0.90;99.90;;;;;;5093752;28;19908;-41
2022/03/02 03:33:33;;;;;;;;;;;-0.90;99.90;;;;;;5093718;28;19912;-41
2022/03/02 03:35:59;;;;;;;;;;;-1.00;99.90;;;;;;5093847;28;20366;-40
2022/03/02 03:38:24;;;;;;;;;;;-1.00;99.90;;;;;;5093700;28;19912;-40
2022/03/02 03:40:50;;;;;;;;;;;-1.00;99.90;;;;;;5093895;28;20270;-41
2022/03/02 03:43:15;;;;;;;;;;;-1.00;99.90;;;;;;5093712;28;19912;-40
2022/03/02 03:45:41;;;;;;;;;;;-1.00;99.90;;;;;;5093710;28;19916;-41
2022/03/02 03:48:06;;;;;;;;;;;-1.00;99.90;;;;;;5093783;28;19909;-41
2022/03/02 03:50:32;;;;;;;;;;;-1.00;99.90;;;;;;5093768;28;19961;-40
2022/03/02 03:52:57;;;;;;;;;;;-1.00;99.90;;;;;;5092512;28;19908;-40
2022/03/02 03:55:23;;;;;;;;;;;-1.00;99.90;;;;;;5093782;28;19915;-40
2022/03/02 03:57:49;;;;;;;;;;;-1.00;99.90;;;;;;5093720;28;19912;-40
2022/03/02 04:00:17;;;;;;;;;;;-1.10;99.90;;;;;;5093562;28;19961;-41
2022/03/02 04:02:43;;;;;;;;;;;-1.10;99.90;;;;;;5094001;28;19927;-40
2022/03/02 04:05:09;;;;;;;;;;;-1.20;99.90;;;;;;5096206;28;19908;-40
2022/03/02 04:07:36;;;;;;;;;;;-1.20;99.90;;;;;;5097444;28;19915;-40
2022/03/02 04:10:03;;;;;;;;;;;-1.20;99.90;;;;;;5097087;28;19915;-40
2022/03/02 04:12:28;;;;;;;;;;;-1.10;99.90;;;;;;5096933;28;20370;-41
2022/03/02 04:14:55;;;;;;;;;;;-1.20;99.90;;;;;;5096975;28;19914;-41
2022/03/02 04:17:21;;;;;;;;;;;-1.20;99.90;;;;;;5096942;28;19912;-40
2022/03/02 04:19:47;;;;;;;;;;;-1.20;99.90;;;;;;5097284;28;20256;-41
2022/03/02 04:22:12;;;;;;;;;;;-1.10;99.90;;;;;;5096874;28;19966;-40
2022/03/02 04:24:38;;;;;;;;;;;-1.00;99.90;;;;;;5097179;28;19974;-41
2022/03/02 04:27:04;;;;;;;;;;;-1.00;99.90;;;;;;5096827;28;19916;-40
2022/03/02 04:29:29;;;;;;;;;;;-1.00;99.90;;;;;;5097165;28;19927;-40
2022/03/02 04:31:55;;;;;;;;;;;-1.00;99.90;;;;;;5096881;28;20251;-40
2022/03/02 04:34:20;;;;;;;;;;;-1.10;99.90;;;;;;5095871;28;19912;-40
2022/03/02 04:36:46;;;;;;;;;;;-0.90;99.90;;;;;;5116716;28;19912;-40
2022/03/02 04:39:11;;;;;;;;;;;-0.90;99.90;;;;;;5110909;28;19916;-41
2022/03/02 04:41:37;;;;;;;;;;;-0.90;99.90;;;;;;5096434;28;20129;-40
2022/03/02 04:44:02;;;;;;;;;;;-0.90;99.90;;;;;;5097319;28;20260;-40
2022/03/02 04:46:28;;;;;;;;;;;-0.90;99.90;;;;;;5117019;28;19907;-41
2022/03/02 04:48:53;;;;;;;;;;;-0.80;99.90;;;;;;5106169;28;19919;-41
2022/03/02 04:51:19;;;;;;;;;;;-0.70;99.90;;;;;;5096317;28;19953;-40
2022/03/02 04:53:45;;;;;;;;;;;-0.80;99.90;;;;;;5096460;28;19915;-39
2022/03/02 04:56:10;;;;;;;;;;;-0.80;99.90;;;;;;5116905;28;20357;-40
2022/03/02 04:58:36;;;;;;;;;;;-0.80;99.90;;;;;;5116764;28;19912;-40
2022/03/02 05:01:02;;;;;;;;;;;-0.70;99.90;;;;;;5116670;28;19908;-40
2022/03/02 05:03:27;;;;;;;;;;;-0.80;99.90;;;;;;5116308;28;20384;-40
2022/03/02 05:05:53;;;;;;;;;;;-0.70;99.90;;;;;;5116340;28;19908;-40
2022/03/02 05:08:18;;;;;;;;;;;-0.80;99.90;;;;;;5096314;28;19908;-40
2022/03/02 05:10:44;;;;;;;;;;;-0.60;99.90;;;;;;5095835;28;20013;-40
2022/03/02 05:13:10;;;;;;;;;;;-0.60;99.90;;;;;;5095691;28;20366;-40
2022/03/02 05:15:36;;;;;;;;;;;-0.70;99.90;;;;;;5094471;28;19916;-41
2022/03/02 05:18:02;;;;;;;;;;;-0.70;99.90;;;;;;5095166;28;20010;-41
2022/03/02 05:20:27;;;;;;;;;;;-0.60;99.90;;;;;;5110698;28;20341;-41
2022/03/02 05:22:53;;;;;;;;;;;-0.60;99.90;;;;;;5115563;28;19931;-41
2022/03/02 05:25:19;;;;;;;;;;;-0.50;99.90;;;;;;5116038;28;19915;-42
2022/03/02 05:27:45;;;;;;;;;;;-0.40;99.90;;;;;;5113733;27;19919;-42
2022/03/02 05:30:11;;;;;;;;;;;-0.40;99.90;;;;;;5116258;28;19918;-40
2022/03/02 05:32:38;;;;;;;;;;;-0.40;99.90;;;;;;5115793;28;19961;-40
2022/03/02 05:35:03;;;;;;;;;;;-0.50;99.90;;;;;;5115613;28;19968;-40
2022/03/02 05:37:29;;;;;;;;;;;-0.40;99.90;;;;;;5114345;28;19912;-40
2022/03/02 05:39:54;;;;;;;;;;;-0.30;99.90;;;;;;5115571;28;19920;-40
2022/03/02 05:42:22;;;;;;;;;;;-0.40;99.90;;;;;;5114715;28;21330;-41
2022/03/02 05:44:49;;;;;;;;;;;-0.40;99.90;;;;;;5115539;28;19953;-40
2022/03/02 05:47:14;;;;;;;;;;;-0.30;99.90;;;;;;5114494;28;20353;-39
2022/03/02 05:49:40;;;;;;;;;;;-0.30;99.90;;;;;;5115311;28;19998;-42
2022/03/02 05:52:05;;;;;;;;;;;-0.20;99.90;;;;;;5115727;28;20014;-41
2022/03/02 05:54:31;;;;;;;;;;;0.00;99.90;;;;;;5115280;28;20356;-40
2022/03/02 05:56:56;;;;;;;;;;;0.00;99.90;;;;;;5115026;28;19911;-40
2022/03/02 05:59:22;;;;;;;;;;;0.00;99.90;;;;;;5115190;28;19912;-41
2022/03/02 06:01:49;;;;;;;;;;;0.10;99.90;;;;;;5115880;28;19953;-40
2022/03/02 06:04:14;;;;;;;;;;;0.10;99.90;;;;;;5114252;28;20351;-41
2022/03/02 06:06:40;;;;;;;;;;;0.20;99.90;;;;;;5114956;28;19915;-40
2022/03/02 06:09:06;;;;;;;;;;;0.20;99.90;;;;;;5114966;28;19912;-41
2022/03/02 06:11:32;;;;;;;;;;;0.20;99.90;;;;;;5114972;28;19943;-41
2022/03/02 06:13:58;;;;;;;;;;;0.20;99.90;;;;;;5114664;28;19966;-41
2022/03/02 06:16:24;;;;;;;;;;;0.30;99.90;;;;;;5114614;28;20056;-41
2022/03/02 06:18:50;;;;;;;;;;;0.20;99.90;;;;;;5115103;28;19912;-43
2022/03/02 06:21:18;;;;;;;;;;;0.20;99.90;;;;;;5114999;28;20243;-40
2022/03/02 06:23:43;;;;;;;;;;;0.20;99.90;;;;;;5114623;28;19915;-40
2022/03/02 06:26:09;;;;;;;;;;;0.20;99.90;;;;;;5114476;28;19908;-40
2022/03/02 06:28:34;;;;;;;;;;;0.20;99.90;;;;;;5114225;28;20003;-40
2022/03/02 06:31:00;;;;;;;;;;;0.30;99.90;;;;;;5114467;28;19934;-41
2022/03/02 06:33:25;;;;;;;;;;;0.30;99.90;;;;;;5114400;28;19918;-42
2022/03/02 06:35:51;;;;;;;;;;;0.30;99.90;;;;;;5114235;28;19979;-41
2022/03/02 06:38:17;;;;;;;;;;;0.30;99.90;;;;;;5114318;28;20271;-40
2022/03/02 06:41:02;;;;;;;;;;;0.20;99.90;;;;;;5113981;28;20411;-40
2022/03/02 06:43:38;;;;;;;;;;;0.20;99.90;;;;;;5114353;28;20266;-40
2022/03/02 06:46:09;;;;;;;;;;;0.30;99.90;;;;;;5114027;28;20397;-40
2022/03/02 06:48:41;;;;;;;;;;;0.30;99.90;;;;;;5114378;28;19912;-41
2022/03/02 06:51:07;;;;;;;;;;;0.30;99.90;;;;;;5113853;28;20001;-41
2022/03/02 06:53:35;;;;;;;;;;;0.30;99.90;;;;;;5113660;28;19914;-41
2022/03/02 06:56:02;;;;;;;;;;;0.20;99.90;;;;;;5112557;28;20363;-40
2022/03/02 06:58:28;;;;;;;;;;;0.20;99.90;;;;;;5112663;28;19999;-41
2022/03/02 07:00:56;;;;;;;;;;;0.30;99.90;;;;;;5113714;28;19915;-41
2022/03/02 07:03:26;;;;;;;;;;;0.40;99.90;;;;;;5113856;28;19908;-40
2022/03/02 07:05:53;;;;;;;;;;;0.50;99.90;;;;;;5113726;28;20025;-41
2022/03/02 07:08:18;;;;;;;;;;;0.70;99.90;;;;;;5112560;28;19915;-41
2022/03/02 07:10:44;;;;;;;;;;;0.80;99.90;;;;;;5113895;28;20353;-40
2022/03/02 07:13:10;;;;;;;;;;;0.80;99.90;;;;;;5113970;28;19908;-41
2022/03/02 07:15:35;;;;;;;;;;;1.00;99.90;;;;;;5113558;28;19947;-42
2022/03/02 07:18:02;;;;;;;;;;;1.10;99.90;;;;;;5114066;28;20002;-40
2022/03/02 07:20:28;;;;;;;;;;;1.30;99.90;;;;;;5113197;28;19919;-41
2022/03/02 07:22:55;;;;;;;;;;;1.30;99.90;;;;;;5099001;28;19909;-40
2022/03/02 07:25:21;;;;;;;;;;;1.40;99.90;;;;;;5095148;28;19915;-41
2022/03/02 07:27:47;;;;;;;;;;;1.40;99.90;;;;;;5109075;28;19908;-41
2022/03/02 07:30:12;;;;;;;;;;;1.50;99.90;;;;;;5095819;28;19953;-40
2022/03/02 07:32:41;;;;;;;;;;;1.60;99.90;;;;;;5113235;28;19908;-41
2022/03/02 07:35:07;;;;;;;;;;;1.80;99.90;;;;;;5113448;28;20368;-39
2022/03/02 07:37:33;;;;;;;;;;;2.00;99.90;;;;;;5111837;28;19947;-40
2022/03/02 07:39:59;;;;;;;;;;;2.20;99.90;;;;;;5114544;28;20011;-41
2022/03/02 07:42:25;;;;;;;;;;;2.40;99.90;;;;;;5097422;28;20306;-41
2022/03/02 07:44:51;;;;;;;;;;;2.70;99.90;;;;;;5117341;28;20000;-41
2022/03/02 07:47:17;;;;;;;;;;;2.60;99.90;;;;;;5117934;28;19947;-41
2022/03/02 07:49:43;;;;;;;;;;;2.70;99.90;;;;;;5116417;28;19983;-41
2022/03/02 07:52:09;;;;;;;;;;;2.80;99.90;;;;;;5101942;28;19912;-42
2022/03/02 07:54:37;;;;;;;;;;;3.00;99.90;;;;;;5096491;28;19935;-41
2022/03/02 07:57:03;;;;;;;;;;;3.20;99.90;;;;;;5095970;28;19920;-43
2022/03/02 07:59:37;;;;;;;;;;;3.40;99.90;;;;;;5097130;28;20354;-41
2022/03/02 08:02:04;;;;;;;;;;;3.60;99.90;;;;;;5097285;28;19915;-41
2022/03/02 08:04:30;;;;;;;;;;;3.90;99.90;;;;;;5095488;28;19904;-41
2022/03/02 08:06:55;;;;;;;;;;;4.10;99.90;;;;;;5078863;28;19908;-41
2022/03/02 08:09:21;;;;;;;;;;;4.30;99.90;;;;;;5096898;28;20404;-41
2022/03/02 08:11:47;;;;;;;;;;;4.20;99.90;;;;;;5098983;28;19908;-42
2022/03/02 08:14:12;;;;;;;;;;;4.20;99.90;;;;;;5104554;28;19904;-41
2022/03/02 08:16:38;;;;;;;;;;;4.30;99.90;;;;;;5117435;28;19991;-40
2022/03/02 08:19:05;;;;;;;;;;;4.30;99.90;;;;;;5101964;28;19908;-41
2022/03/02 08:21:31;;;;;;;;;;;4.40;99.90;;;;;;5103366;28;20343;-42
2022/03/02 08:23:57;;;;;;;;;;;4.40;99.90;;;;;;5096911;28;20262;-42
2022/03/02 08:26:23;;;;;;;;;;;4.40;99.90;;;;;;5097717;28;20006;-40
2022/03/02 08:28:52;;;;;;;;;;;4.40;99.90;;;;;;5093642;28;20266;-40
2022/03/02 08:31:18;;;;;;;;;;;4.40;99.90;;;;;;5111978;28;19911;-40
2022/03/02 08:33:44;;;;;;;;;;;4.70;99.90;;;;;;5102397;28;19908;-43
2022/03/02 08:36:10;;;;;;;;;;;5.00;99.90;;;;;;5084217;28;20342;-44
2022/03/02 08:38:40;;;;;;;;;;;5.40;99.90;;;;;;5102043;28;19915;-45
2022/03/02 08:41:07;;;;;;;;;;;5.40;99.90;;;;;;5105274;28;19953;-41
2022/03/02 08:43:34;;;;;;;;;;;5.70;99.90;;;;;;5095848;28;19904;-42
2022/03/02 08:46:00;;;;;;;;;;;5.60;99.90;;;;;;5095882;28;19911;-40
2022/03/02 08:48:25;;;;;;;;;;;5.70;99.90;;;;;;5093662;28;19912;-41
2022/03/02 08:50:53;;;;;;;;;;;5.80;99.90;;;;;;5094868;28;19912;-41
2022/03/02 08:53:18;;;;;;;;;;;6.10;99.90;;;;;;5084373;28;19912;-41
2022/03/02 08:55:45;;;;;;;;;;;6.30;99.90;;;;;;5076412;28;20016;-40
2022/03/02 08:58:10;;;;;;;;;;;6.50;99.90;;;;;;5104534;28;19913;-41
2022/03/02 09:00:36;;;;;;;;;;;6.20;98.00;;;;;;5077016;28;20120;-41
2022/03/02 09:03:03;;;;;;;;;;;6.20;98.20;;;;;;5089674;28;19915;-42
2022/03/02 09:05:29;;;;;;;;;;;6.10;97.80;;;;;;5083326;28;20274;-44
2022/03/02 09:07:55;;;;;;;;;;;5.70;95.70;;;;;;5075418;28;19904;-42
2022/03/02 09:10:21;;;;;;;;;;;5.70;97.10;;;;;;5089566;28;19918;-50
2022/03/02 09:12:46;;;;;;;;;;;6.00;96.60;;;;;;5083619;28;19912;-41
2022/03/02 09:15:12;;;;;;;;;;;6.40;96.00;;;;;;5120454;27;19908;-43
2022/03/02 09:17:37;;;;;;;;;;;6.40;95.80;;;;;;5090640;28;20331;-46
2022/03/02 09:20:04;;;;;;;;;;;6.50;96.50;;;;;;5077195;28;20394;-44
2022/03/02 09:22:30;;;;;;;;;;;6.70;97.90;;;;;;5076644;28;19912;-50
2022/03/02 09:24:57;;;;;;;;;;;6.90;95.30;;;;;;5076120;28;20313;-43
2022/03/02 09:27:27;;;;;;;;;;;6.60;95.00;;;;;;5076810;28;19915;-42
2022/03/02 09:29:56;;;;;;;;;;;6.70;95.20;;;;;;5120612;27;20036;-44
2022/03/02 09:32:23;;;;;;;;;;;6.70;94.30;;;;;;5093340;28;20397;-48
2022/03/02 09:34:53;;;;;;;;;;;6.20;92.10;;;;;;5084924;28;20320;-47
2022/03/02 09:37:18;;;;;;;;;;;6.40;92.70;;;;;;5075959;28;19908;-43
2022/03/02 09:39:44;;;;;;;;;;;6.70;94.10;;;;;;5076064;28;20049;-45
2022/03/02 09:42:11;;;;;;;;;;;6.50;91.00;;;;;;5077616;28;20285;-48
2022/03/02 09:44:40;;;;;;;;;;;6.60;93.70;;;;;;5093008;28;19923;-47
2022/03/02 09:47:09;;;;;;;;;;;6.80;93.80;;;;;;5083261;28;19916;-48
2022/03/02 09:49:35;;;;;;;;;;;7.20;93.50;;;;;;5094340;28;19910;-47
2022/03/02 09:52:03;;;;;;;;;;;6.80;91.90;;;;;;5094504;28;20022;-45
2022/03/02 09:54:29;;;;;;;;;;;7.00;93.50;;;;;;5094653;28;19904;-43
2022/03/02 09:56:55;;;;;;;;;;;7.30;96.20;;;;;;5094715;28;19908;-46
2022/03/02 09:59:23;;;;;;;;;;;7.40;92.40;;;;;;5093487;28;19934;-49
2022/03/02 10:01:50;;;;;;;;;;;6.90;91.60;;;;;;5090277;28;20618;-41
2022/03/02 10:04:22;;;;;;;;;;;6.90;91.90;;;;;;5078756;28;19943;-44
2022/03/02 10:06:48;;;;;;;;;;;6.50;92.00;;;;;;5080756;28;20002;-41
2022/03/02 10:09:18;;;;;;;;;;;6.30;93.30;;;;;;5089241;28;19966;-42
2022/03/02 10:11:43;;;;;;;;;;;6.60;93.90;;;;;;5090443;28;19933;-41
2022/03/02 10:14:09;;;;;;;;;;;6.60;93.20;;;;;;5092177;28;19920;-42
2022/03/02 10:16:40;;;;;;;;;;;7.00;94.70;;;;;;5094616;28;19916;-42
2022/03/02 10:19:07;;;;;;;;;;;6.80;94.10;;;;;;5093327;28;19916;-42
2022/03/02 10:21:39;;;;;;;;;;;6.80;95.30;;;;;;5092632;28;19944;-42
2022/03/02 10:24:05;;;;;;;;;;;7.00;96.30;;;;;;5093435;28;19948;-50
2022/03/02 10:26:31;;;;;;;;;;;7.10;95.50;;;;;;5093874;28;20003;-42
2022/03/02 10:29:09;;;;;;;;;;;6.90;94.80;;;;;;5082780;28;20388;-42
2022/03/02 10:31:34;;;;;;;;;;;6.40;95.00;;;;;;5075151;28;19912;-42
2022/03/02 10:34:23;;;;;;;;;;;6.70;95.20;;;;;;5087677;28;19934;-43
2022/03/02 10:36:50;;;;;;;;;;;6.80;94.20;;;;;;5070121;28;19962;-43
2022/03/02 10:39:33;;;;;;;;;;;6.60;94.40;;;;;;5074478;28;20371;-44
2022/03/02 10:42:01;;;;;;;;;;;6.30;94.30;;;;;;5075735;28;19924;-43
2022/03/02 10:44:43;;;;;;;;;;;6.20;94.70;;;;;;5082421;28;19946;-45
2022/03/02 10:47:10;;;;;;;;;;;6.30;95.60;;;;;;5089540;28;19919;-40
2022/03/02 10:49:36;;;;;;;;;;;6.20;94.30;;;;;;5093665;28;19920;-42
2022/03/02 10:52:03;;;;;;;;;;;5.70;94.20;;;;;;5077866;28;19913;-50
2022/03/02 10:54:30;;;;;;;;;;;5.70;94.70;;;;;;5078011;28;19912;-47
2022/03/02 10:56:57;;;;;;;;;;;5.80;94.80;;;;;;5100649;28;20346;-41
2022/03/02 10:59:24;;;;;;;;;;;5.80;95.50;;;;;;5081916;28;19915;-41
2022/03/02 11:01:50;;;;;;;;;;;5.80;95.00;;;;;;5081788;28;19912;-41
2022/03/02 11:04:18;;;;;;;;;;;5.90;95.20;;;;;;5084331;28;20397;-47
2022/03/02 11:06:43;;;;;;;;;;;6.20;94.80;;;;;;5073963;28;19980;-46
2022/03/02 11:09:09;;;;;;;;;;;6.50;95.60;;;;;;5087839;28;19913;-46
2022/03/02 11:11:37;;;;;;;;;;;6.60;93.30;;;;;;5080436;28;19918;-44
2022/03/02 11:14:04;;;;;;;;;;;6.80;95.00;;;;;;5074761;28;20007;-46
2022/03/02 11:16:29;;;;;;;;;;;7.20;91.90;;;;;;5084086;28;20243;-46
2022/03/02 11:18:55;;;;;;;;;;;7.40;93.60;;;;;;5092539;28;20009;-48
2022/03/02 11:21:24;;;;;;;;;;;7.30;92.60;;;;;;5083747;28;19974;-50
2022/03/02 11:23:50;;;;;;;;;;;7.40;93.00;;;;;;5073373;28;19915;-47
2022/03/02 11:26:17;;;;;;;;;;;7.80;95.30;;;;;;5093711;28;19912;-40
2022/03/02 11:28:47;;;;;;;;;;;8.10;93.00;;;;;;5078831;28;19984;-40
2022/03/02 11:31:17;;;;;;;;;;;7.90;91.80;;;;;;5082866;28;20271;-43
2022/03/02 11:33:42;;;;;;;;;;;7.50;91.00;;;;;;5071897;28;20011;-41
2022/03/02 11:36:12;;;;;;;;;;;7.60;92.50;;;;;;5085011;28;19995;-39
2022/03/02 11:38:42;;;;;;;;;;;7.40;91.40;;;;;;5093324;28;19916;-41
2022/03/02 11:41:09;;;;;;;;;;;7.80;91.90;;;;;;5092190;28;20011;-46
2022/03/02 11:43:35;;;;;;;;;;;7.90;88.60;;;;;;5090913;28;19918;-44
2022/03/02 11:46:04;;;;;;;;;;;8.10;90.00;;;;;;5088053;28;19912;-50
2022/03/02 11:48:31;;;;;;;;;;;8.50;91.30;;;;;;5074068;28;19913;-42
2022/03/02 11:51:04;;;;;;;;;;;8.20;90.40;;;;;;5072706;28;19994;-46
2022/03/02 11:53:31;;;;;;;;;;;8.30;91.50;;;;;;5085114;28;20309;-41
2022/03/02 11:55:58;;;;;;;;;;;8.60;91.80;;;;;;5091836;28;19912;-40
2022/03/02 11:58:24;;;;;;;;;;;8.60;88.00;;;;;;5089302;28;20054;-42
2022/03/02 12:00:49;;;;;;;;;;;8.00;92.00;;;;;;5090167;28;19943;-42
2022/03/02 12:03:15;;;;;;;;;;;8.20;90.90;;;;;;5089248;28;20329;-40
2022/03/02 12:05:41;;;;;;;;;;;7.50;86.90;;;;;;5089796;28;20339;-41
2022/03/02 12:08:08;;;;;;;;;;;7.50;90.40;;;;;;5088098;28;19915;-42
2022/03/02 12:10:35;;;;;;;;;;;7.80;88.90;;;;;;5092209;28;19959;-41
2022/03/02 12:13:00;;;;;;;;;;;7.90;90.40;;;;;;5093050;28;19998;-42
2022/03/02 12:15:27;;;;;;;;;;;7.60;90.70;;;;;;5092648;28;19908;-42
2022/03/02 12:18:06;;;;;;;;;;;7.40;88.90;;;;;;5091213;28;19973;-41
2022/03/02 12:20:34;;;;;;;;;;;7.40;90.40;;;;;;5084735;28;20282;-42
2022/03/02 12:23:00;;;;;;;;;;;7.70;87.90;;;;;;5073009;28;20309;-42
2022/03/02 12:25:26;;;;;;;;;;;7.30;87.90;;;;;;5081955;28;20019;-41
2022/03/02 12:27:59;;;;;;;;;;;7.70;90.60;;;;;;5084787;28;19950;-41
2022/03/02 12:30:25;;;;;;;;;;;8.00;90.20;;;;;;5077406;28;19912;-41
2022/03/02 12:32:52;;;;;;;;;;;8.00;91.90;;;;;;5087567;28;19919;-41
2022/03/02 12:35:22;;;;;;;;;;;7.90;89.20;;;;;;5098819;28;19916;-42
2022/03/02 12:37:47;;;;;;;;;;;7.80;89.50;;;;;;5116206;28;20012;-41
2022/03/02 12:40:13;;;;;;;;;;;8.00;89.50;;;;;;5105985;28;19955;-41
2022/03/02 12:42:39;;;;;;;;;;;8.40;87.80;;;;;;5096185;28;19961;-41
2022/03/02 12:45:05;;;;;;;;;;;7.90;90.50;;;;;;5095974;28;19908;-42
2022/03/02 12:47:31;;;;;;;;;;;8.00;86.50;;;;;;5094844;28;19942;-41
2022/03/02 12:49:58;;;;;;;;;;;8.20;88.60;;;;;;5095750;28;20303;-41
2022/03/02 12:52:28;;;;;;;;;;;8.40;90.10;;;;;;5094364;28;19917;-41
2022/03/02 12:54:54;;;;;;;;;;;8.40;89.00;;;;;;5093079;28;19952;-42
2022/03/02 12:57:38;;;;;;;;;;;8.40;82.90;;;;;;5104054;28;20020;-41
2022/03/02 13:00:09;;;;;;;;;;;8.50;82.30;;;;;;5116343;28;19941;-42
2022/03/02 13:02:35;;;;;;;;;;;8.00;83.50;;;;;;5096532;28;20423;-42
2022/03/02 13:05:01;;;;;;;;;;;7.90;84.00;;;;;;5103093;28;19961;-40
2022/03/02 13:07:35;;;;;;;;;;;7.70;84.60;;;;;;5115905;28;19908;-41
2022/03/02 13:10:03;;;;;;;;;;;7.80;83.60;;;;;;5095400;28;19912;-42
2022/03/02 13:12:38;;;;;;;;;;;7.90;85.20;;;;;;5094106;28;19991;-50
2022/03/02 13:15:24;;;;;;;;;;;7.70;85.30;;;;;;5094950;28;19953;-44
2022/03/02 13:18:07;;;;;;;;;;;7.50;85.70;;;;;;5094902;28;19919;-44
2022/03/02 13:20:34;;;;;;;;;;;7.80;85.00;;;;;;5094956;28;20330;-44
2022/03/02 13:23:18;;;;;;;;;;;7.60;85.50;;;;;;5094422;28;20006;-44
2022/03/02 13:25:57;;;;;;;;;;;7.50;87.00;;;;;;5094775;28;19915;-43
2022/03/02 13:28:24;;;;;;;;;;;7.60;87.10;;;;;;5074502;28;20320;-43
2022/03/02 13:31:19;;;;;;;;;;;7.50;85.70;;;;;;5090154;28;19920;-44
2022/03/02 13:33:50;;;;;;;;;;;7.30;86.80;;;;;;5082956;28;19924;-45
2022/03/02 13:36:30;;;;;;;;;;;7.50;87.50;;;;;;5092418;28;19924;-42
2022/03/02 13:39:04;;;;;;;;;;;7.70;87.20;;;;;;5085077;28;20330;-43
2022/03/02 13:41:48;;;;;;;;;;;7.80;86.20;;;;;;5115147;27;20373;-44
2022/03/02 13:44:25;;;;;;;;;;;8.00;86.80;;;;;;5093296;28;19912;-45
2022/03/02 13:47:11;;;;;;;;;;;8.10;86.00;;;;;;5088944;28;19947;-43
2022/03/02 13:49:50;;;;;;;;;;;7.80;85.60;;;;;;5082601;28;19912;-44
2022/03/02 13:52:18;;;;;;;;;;;7.40;86.80;;;;;;5076935;28;20405;-43
2022/03/02 13:54:44;;;;;;;;;;;7.60;87.10;;;;;;5090766;28;19912;-42
2022/03/02 13:57:20;;;;;;;;;;;7.60;87.50;;;;;;5091736;28;19936;-44
2022/03/02 13:59:45;;;;;;;;;;;7.50;88.30;;;;;;5074208;28;20075;-42
2022/03/02 14:02:11;;;;;;;;;;;7.50;88.70;;;;;;5082395;28;19965;-43
2022/03/02 14:04:43;;;;;;;;;;;7.60;90.80;;;;;;5087073;28;20360;-43
2022/03/02 14:07:09;;;;;;;;;;;7.40;91.20;;;;;;5081166;28;19912;-42
2022/03/02 14:09:35;;;;;;;;;;;7.60;90.40;;;;;;5102881;28;20397;-41
2022/03/02 14:12:04;;;;;;;;;;;7.40;90.40;;;;;;5114066;28;19937;-42
2022/03/02 14:14:32;;;;;;;;;;;7.40;90.80;;;;;;5095446;28;19908;-41
2022/03/02 14:17:09;;;;;;;;;;;7.50;91.90;;;;;;5092991;28;20274;-42
2022/03/02 14:19:35;;;;;;;;;;;7.30;92.60;;;;;;5089473;28;20042;-42
2022/03/02 14:22:02;;;;;;;;;;;7.10;92.00;;;;;;5093927;28;19904;-41
2022/03/02 14:24:32;;;;;;;;;;;7.00;93.60;;;;;;5091685;28;19904;-43
2022/03/02 14:26:59;;;;;;;;;;;6.90;95.20;;;;;;5091077;28;20317;-43